Archers Lodge, North Carolina
Current Conditions -  °F | °C
As of 2:55 PM on Monday 24 Nov 2014 (Local Time) from KJNX Reporting Station
Overcast Overcast  
Wind Chill: 21°   Ceiling: 1600
Heat Index: 21°   Visibility: 10mi
Dew Point: 20°   Wind: 9mph
Humidity: 94%   Direction: 200°SSW
Pressure: 29.8"   Gusts: NA
Location:  35.6101°N, 78.4715°W
Report Text: KJNX 241955Z AUTO 20008KT 10SM BKN016 BKN024 OVC065 21/20 A2980 RMK AO2 LTG DSNT S AND SW
Loading
Personal Weather Stations






























Interactive Weather Map New forecast layout! Learn more

10-Day Weather Forecast

Advertisements
Track Severe Weather on mobile